createdAt,value
2022-11-18T00:00:49.828Z,15.57
2022-11-18T00:03:39.602Z,14.70
2022-11-18T00:06:33.948Z,16.47
2022-11-18T00:09:22.681Z,13.90
2022-11-18T00:12:26.072Z,15.47
2022-11-18T00:15:15.814Z,17.03
2022-11-18T00:18:09.728Z,16.77
2022-11-18T00:21:03.398Z,18.07
2022-11-18T00:23:55.498Z,17.00
2022-11-18T00:26:45.400Z,18.00
2022-11-18T00:29:36.059Z,16.10
2022-11-18T00:32:29.207Z,15.10
2022-11-18T00:35:18.986Z,16.43
2022-11-18T00:38:11.210Z,16.97
2022-11-18T00:41:08.938Z,18.27
2022-11-18T00:43:58.550Z,17.60
2022-11-18T00:46:51.237Z,17.70
2022-11-18T00:49:39.776Z,15.23
2022-11-18T00:52:35.629Z,18.20
2022-11-18T00:55:24.163Z,14.87
2022-11-18T00:58:19.336Z,17.30
2022-11-18T01:01:10.672Z,18.60
2022-11-18T01:03:59.270Z,17.30
2022-11-18T01:06:47.815Z,15.63
2022-11-18T01:09:45.935Z,19.40
2022-11-18T01:12:54.384Z,18.07
2022-11-18T01:15:47.381Z,19.67
2022-11-18T01:18:35.998Z,16.40
2022-11-18T01:21:25.716Z,18.40
2022-11-18T01:24:14.302Z,17.50
2022-11-18T01:27:03.386Z,20.47
2022-11-18T01:29:54.015Z,18.30
2022-11-18T01:32:43.946Z,17.37
2022-11-18T01:35:36.265Z,19.70
2022-11-18T01:38:24.819Z,20.07
2022-11-18T01:41:22.961Z,19.20
2022-11-18T01:44:26.376Z,16.93
2022-11-18T01:47:16.195Z,18.30
2022-11-18T01:50:06.907Z,18.33
2022-11-18T01:53:00.887Z,19.63
2022-11-18T01:56:03.515Z,19.03
2022-11-18T01:58:56.727Z,19.20
2022-11-18T02:01:48.664Z,22.10
2022-11-18T02:04:40.538Z,19.60
2022-11-18T02:07:34.463Z,21.37
2022-11-18T02:10:27.547Z,15.87
2022-11-18T02:13:16.410Z,20.33
2022-11-18T02:16:12.267Z,21.47
2022-11-18T02:19:05.567Z,20.20
2022-11-18T02:21:59.376Z,21.80
2022-11-18T02:24:56.412Z,20.27
2022-11-18T02:28:02.571Z,20.73
2022-11-18T02:31:04.211Z,20.40
2022-11-18T02:34:00.217Z,21.43
2022-11-18T02:36:52.135Z,18.40
2022-11-18T02:39:45.087Z,18.10
2022-11-18T02:42:35.941Z,18.20
2022-11-18T02:45:27.941Z,19.67
2022-11-18T02:48:21.935Z,19.43
2022-11-18T02:51:13.022Z,20.67
2022-11-18T02:54:06.279Z,20.63
2022-11-18T02:56:58.087Z,17.97
2022-11-18T02:59:46.638Z,19.60
2022-11-18T03:02:43.807Z,20.30
2022-11-18T03:05:41.446Z,18.40
2022-11-18T03:08:33.588Z,17.30
2022-11-18T03:11:28.084Z,17.07
2022-11-18T03:14:22.144Z,19.30
2022-11-18T03:17:14.677Z,17.40
2022-11-18T03:20:11.460Z,17.70
2022-11-18T03:23:09.655Z,17.93
2022-11-18T03:26:02.907Z,17.60
2022-11-18T03:28:55.358Z,15.17
2022-11-18T03:31:50.603Z,15.00
2022-11-18T03:34:43.660Z,17.80
2022-11-18T03:37:37.220Z,15.13
2022-11-18T03:40:29.865Z,16.13
2022-11-18T03:43:26.198Z,16.50
2022-11-18T03:46:24.123Z,17.27
2022-11-18T03:49:30.447Z,16.53
2022-11-18T03:52:27.719Z,15.23
2022-11-18T03:55:21.995Z,16.20
2022-11-18T03:58:22.307Z,17.00
2022-11-18T04:01:13.143Z,18.23
2022-11-18T04:04:04.287Z,15.87
2022-11-18T04:06:58.942Z,16.67
2022-11-18T04:09:49.438Z,17.07
2022-11-18T04:12:45.628Z,17.03
2022-11-18T04:15:39.669Z,17.33
2022-11-18T04:18:29.442Z,15.90
2022-11-18T04:21:24.484Z,18.27
2022-11-18T04:24:23.663Z,19.67
2022-11-18T04:27:15.275Z,16.13
2022-11-18T04:30:05.550Z,17.50
2022-11-18T04:32:59.799Z,17.70
2022-11-18T04:35:48.435Z,17.47
2022-11-18T04:38:39.088Z,23.53
2022-11-18T04:41:41.638Z,19.03
2022-11-18T04:44:32.978Z,15.63
2022-11-18T04:47:21.487Z,19.87
2022-11-18T04:50:18.806Z,18.57
2022-11-18T04:53:08.501Z,20.10
2022-11-18T04:55:57.055Z,21.83
2022-11-18T04:58:49.859Z,18.13
2022-11-18T05:01:40.997Z,19.47
2022-11-18T05:04:32.114Z,19.57
2022-11-18T05:07:24.299Z,19.47
2022-11-18T05:10:15.754Z,18.70
2022-11-18T05:13:03.280Z,21.50
2022-11-18T05:15:54.805Z,20.03
2022-11-18T05:18:48.017Z,21.30
2022-11-18T05:21:39.376Z,22.77
2022-11-18T05:24:33.250Z,19.60
2022-11-18T05:27:21.871Z,19.10
2022-11-18T05:30:20.103Z,20.33
2022-11-18T05:33:10.574Z,18.93
2022-11-18T05:36:06.185Z,21.17
2022-11-18T05:39:05.047Z,20.67
2022-11-18T05:42:14.975Z,21.73
2022-11-18T05:45:05.205Z,21.07
2022-11-18T05:48:04.608Z,22.67
2022-11-18T05:50:55.362Z,21.40
2022-11-18T05:53:56.428Z,20.63
2022-11-18T05:56:45.828Z,21.20
2022-11-18T05:59:43.858Z,23.20
2022-11-18T06:02:43.400Z,23.00
2022-11-18T06:05:36.372Z,23.27
2022-11-18T06:08:30.690Z,20.33
2022-11-18T06:11:22.635Z,18.87
2022-11-18T06:14:20.611Z,22.43
2022-11-18T06:17:11.956Z,23.60
2022-11-18T06:20:04.368Z,20.60
2022-11-18T06:23:08.015Z,22.63
2022-11-18T06:25:58.801Z,21.07
2022-11-18T06:28:50.440Z,20.67
2022-11-18T06:31:38.995Z,22.03
2022-11-18T06:34:41.450Z,22.30
2022-11-18T06:37:32.706Z,21.17
2022-11-18T06:40:21.318Z,20.87
2022-11-18T06:43:39.272Z,20.17
2022-11-18T06:46:45.454Z,20.87
2022-11-18T06:49:49.517Z,20.17
2022-11-18T06:52:41.098Z,21.60
2022-11-18T06:55:31.308Z,25.43
2022-11-18T06:58:19.873Z,23.37
2022-11-18T07:01:12.412Z,22.63
2022-11-18T07:04:02.900Z,23.77
2022-11-18T07:06:54.390Z,23.70
2022-11-18T07:09:43.028Z,23.80
2022-11-18T07:12:31.599Z,22.87
2022-11-18T07:15:20.140Z,23.10
2022-11-18T07:18:08.672Z,25.03
2022-11-18T07:20:57.228Z,22.43
2022-11-18T07:23:47.714Z,23.37
2022-11-18T07:26:36.666Z,21.40
2022-11-18T07:29:27.593Z,21.97
2022-11-18T07:32:16.253Z,22.33
2022-11-18T07:35:04.828Z,21.40
2022-11-18T07:37:53.376Z,22.83
2022-11-18T07:40:46.244Z,22.43
2022-11-18T07:43:37.832Z,21.70
2022-11-18T07:46:29.896Z,20.67
2022-11-18T07:49:21.488Z,22.17
2022-11-18T07:52:13.082Z,19.23
2022-11-18T07:55:04.216Z,19.27
2022-11-18T07:57:57.563Z,17.63
2022-11-18T08:00:46.103Z,17.83
2022-11-18T08:03:34.623Z,18.83
2022-11-18T08:06:23.258Z,17.23
2022-11-18T08:09:12.018Z,19.20
2022-11-18T08:12:00.591Z,17.83
2022-11-18T08:14:50.519Z,18.60
2022-11-18T08:17:39.114Z,20.97
2022-11-18T08:20:27.843Z,18.47
2022-11-18T08:23:16.930Z,17.33
2022-11-18T08:26:06.512Z,19.43
2022-11-18T08:28:55.299Z,17.97
2022-11-18T08:31:46.396Z,17.90
2022-11-18T08:34:34.951Z,17.20
2022-11-18T08:37:23.529Z,20.60
2022-11-18T08:40:12.600Z,17.00
2022-11-18T08:43:01.144Z,16.47
2022-11-18T08:45:49.735Z,18.40
2022-11-18T08:48:39.651Z,18.07
2022-11-18T08:51:28.544Z,19.07
2022-11-18T08:54:17.122Z,19.47
2022-11-18T08:57:06.949Z,17.67
2022-11-18T08:59:58.978Z,18.37
2022-11-18T09:02:49.779Z,17.40
2022-11-18T09:05:39.724Z,17.80
2022-11-18T09:08:29.707Z,17.00
2022-11-18T09:11:19.065Z,17.50
2022-11-18T09:15:06.397Z,15.53
2022-11-18T09:17:16.384Z,15.83
2022-11-18T09:20:05.124Z,15.63
2022-11-18T09:22:55.098Z,16.37
2022-11-18T09:25:43.671Z,17.57
2022-11-18T09:28:32.422Z,14.80
2022-11-18T09:31:21.184Z,14.47
2022-11-18T09:34:10.257Z,17.40
2022-11-18T09:37:00.113Z,15.80
2022-11-18T09:39:50.072Z,16.10
2022-11-18T09:42:46.618Z,14.20
2022-11-18T09:45:37.562Z,15.67
2022-11-18T09:48:47.642Z,15.27
2022-11-18T09:51:39.935Z,14.50
2022-11-18T09:54:30.172Z,15.43
2022-11-18T09:57:21.740Z,13.60
2022-11-18T10:00:15.391Z,13.53
2022-11-18T10:03:06.278Z,13.40
2022-11-18T10:05:59.870Z,13.20
2022-11-18T10:08:54.382Z,13.50
2022-11-18T10:11:51.831Z,13.97
2022-11-18T10:14:49.623Z,12.03
2022-11-18T10:17:45.603Z,12.03
2022-11-18T10:20:39.148Z,11.83
2022-11-18T10:23:31.173Z,11.07
2022-11-18T10:26:34.676Z,10.57
2022-11-18T10:29:23.716Z,9.30
2022-11-18T10:32:14.968Z,10.10
2022-11-18T10:35:03.528Z,10.13
2022-11-18T10:38:07.906Z,8.97
2022-11-18T10:41:01.097Z,11.20
2022-11-18T10:43:51.090Z,8.83
2022-11-18T10:46:39.794Z,9.10
2022-11-18T10:49:29.728Z,8.07
2022-11-18T10:52:20.003Z,8.97
2022-11-18T10:55:22.067Z,8.13
2022-11-18T10:58:12.119Z,7.60
2022-11-18T11:01:06.711Z,7.60
2022-11-18T11:03:58.817Z,9.33
2022-11-18T11:06:48.729Z,7.37
2022-11-18T11:09:37.258Z,8.07
2022-11-18T11:12:28.997Z,10.60
2022-11-18T11:15:20.030Z,7.10
2022-11-18T11:18:30.904Z,8.10
2022-11-18T11:21:20.587Z,8.43
2022-11-18T11:24:13.847Z,8.80
2022-11-18T11:30:20.940Z,10.10
2022-11-18T11:33:20.121Z,7.57
2022-11-18T11:36:17.370Z,8.67
2022-11-18T11:39:10.351Z,6.80
2022-11-18T11:42:06.037Z,9.53
2022-11-18T11:44:58.791Z,9.67
2022-11-18T11:48:06.286Z,9.93
2022-11-18T11:51:03.387Z,8.70
2022-11-18T11:54:08.031Z,8.60
2022-11-18T11:56:57.719Z,8.40
2022-11-18T11:59:50.094Z,9.07
2022-11-18T12:03:04.332Z,8.50
2022-11-18T12:05:54.653Z,9.03
2022-11-18T12:08:49.541Z,9.70
2022-11-18T12:11:43.939Z,7.00
2022-11-18T12:14:40.140Z,8.43
2022-11-18T12:17:34.066Z,8.53
2022-11-18T12:20:41.237Z,7.43
2022-11-18T12:23:30.115Z,7.90
2022-11-18T12:26:34.746Z,8.10
2022-11-18T12:29:25.672Z,8.63
2022-11-18T12:32:28.172Z,7.47
2022-11-18T12:35:34.697Z,8.57
2022-11-18T12:38:31.520Z,7.57
2022-11-18T12:41:48.854Z,8.83
2022-11-18T12:44:40.320Z,7.00
2022-11-18T12:47:43.744Z,8.80
2022-11-18T12:50:47.725Z,8.60
2022-11-18T12:53:42.288Z,8.73
2022-11-18T12:56:34.472Z,8.20
2022-11-18T12:59:29.711Z,8.47
2022-11-18T13:02:24.068Z,6.23
2022-11-18T13:05:21.253Z,7.20
2022-11-18T13:08:14.250Z,6.00
2022-11-18T13:11:32.688Z,5.90
2022-11-18T13:14:40.618Z,7.20
2022-11-18T13:17:49.870Z,5.63
2022-11-18T13:20:39.866Z,6.50
2022-11-18T13:23:47.652Z,7.20
2022-11-18T13:26:37.912Z,5.87
2022-11-18T13:29:30.524Z,5.63
2022-11-18T13:32:22.849Z,5.57
2022-11-18T13:35:13.533Z,5.00
2022-11-18T13:38:02.925Z,4.90
2022-11-18T13:41:12.481Z,7.20
2022-11-18T13:44:15.925Z,6.17
2022-11-18T13:47:13.276Z,5.57
2022-11-18T13:50:05.237Z,4.40
2022-11-18T13:53:00.137Z,4.43
2022-11-18T13:55:50.916Z,4.47
2022-11-18T13:59:10.427Z,4.30
2022-11-18T14:01:54.658Z,5.20
2022-11-18T14:04:51.167Z,3.80
2022-11-18T14:07:40.347Z,3.93
2022-11-18T14:10:39.200Z,3.63
2022-11-18T14:13:29.191Z,3.50
2022-11-18T14:16:32.516Z,3.40
2022-11-18T14:19:30.392Z,4.20
2022-11-18T14:22:21.374Z,3.47
2022-11-18T14:25:24.893Z,3.57
2022-11-18T14:28:14.636Z,5.20
2022-11-18T14:31:04.850Z,3.70
2022-11-18T14:34:11.381Z,3.37
2022-11-18T14:37:02.807Z,3.47
2022-11-18T14:39:57.591Z,3.73
2022-11-18T14:42:46.152Z,3.67
2022-11-18T14:45:34.715Z,3.90
2022-11-18T14:48:29.688Z,6.07
2022-11-18T14:51:20.794Z,6.33
2022-11-18T14:54:13.126Z,9.20
2022-11-18T14:57:04.195Z,9.70
2022-11-18T14:59:52.814Z,7.30
2022-11-18T15:02:41.437Z,15.93
2022-11-18T15:05:33.059Z,16.80
2022-11-18T15:08:21.601Z,19.20
2022-11-18T15:11:10.232Z,17.60
2022-11-18T15:14:00.192Z,20.33
2022-11-18T15:16:52.034Z,32.17
2022-11-18T15:19:41.618Z,17.23
2022-11-18T15:22:30.276Z,8.20
2022-11-18T15:25:18.914Z,11.80
2022-11-18T15:28:07.492Z,12.20
2022-11-18T15:30:57.505Z,11.50
2022-11-18T15:33:47.922Z,7.90
2022-11-18T15:36:36.469Z,8.10
2022-11-18T15:39:25.268Z,7.20
2022-11-18T15:42:18.008Z,7.77
2022-11-18T15:45:11.217Z,8.20
2022-11-18T15:48:01.130Z,6.73
2022-11-18T15:50:54.047Z,7.50
2022-11-18T15:53:42.860Z,10.40
2022-11-18T15:56:32.825Z,8.53
2022-11-18T15:59:21.481Z,11.60
2022-11-18T16:02:12.175Z,8.27
2022-11-18T16:05:02.081Z,9.27
2022-11-18T16:07:54.850Z,8.10
2022-11-18T16:11:01.404Z,8.80
2022-11-18T16:13:49.946Z,9.10
2022-11-18T16:16:39.029Z,9.40
2022-11-18T16:19:32.522Z,7.50
2022-11-18T16:22:22.469Z,11.90
2022-11-18T16:29:01.421Z,8.80
2022-11-18T16:31:52.262Z,6.27
2022-11-18T16:34:41.058Z,7.40
2022-11-18T16:37:31.492Z,8.13
2022-11-18T16:40:20.027Z,7.73
2022-11-18T16:43:08.607Z,7.17
2022-11-18T16:45:57.185Z,8.67
2022-11-18T16:48:45.706Z,7.63
2022-11-18T16:51:35.775Z,7.27
2022-11-18T16:54:26.492Z,6.67
2022-11-18T16:57:16.413Z,6.30
2022-11-18T17:00:06.052Z,6.10
2022-11-18T17:02:54.668Z,5.97
2022-11-18T17:05:45.188Z,6.67
2022-11-18T17:08:37.218Z,5.83
2022-11-18T17:11:27.205Z,7.10
2022-11-18T17:14:15.930Z,5.53
2022-11-18T17:17:44.329Z,5.00
2022-11-18T17:20:32.896Z,5.20
2022-11-18T17:23:21.584Z,5.30
2022-11-18T17:26:10.304Z,4.40
2022-11-18T17:29:00.350Z,5.83
2022-11-18T17:31:48.909Z,5.00
2022-11-18T17:34:37.495Z,4.47
2022-11-18T17:37:26.053Z,4.70
2022-11-18T17:40:15.094Z,6.27
2022-11-18T17:43:06.486Z,4.27
2022-11-18T17:45:57.279Z,6.40
2022-11-18T17:48:45.812Z,4.43
2022-11-18T17:51:34.662Z,5.10
2022-11-18T17:54:23.683Z,6.13
2022-11-18T17:57:12.401Z,6.80
2022-11-18T18:00:00.987Z,6.20
2022-11-18T18:02:50.938Z,6.83
2022-11-18T18:05:39.624Z,8.43
2022-11-18T18:08:28.172Z,7.13
2022-11-18T18:11:17.422Z,6.37
2022-11-18T18:14:14.085Z,6.87
2022-11-18T18:20:47.071Z,5.80
2022-11-18T18:23:35.778Z,7.63
2022-11-18T18:26:30.939Z,8.20
2022-11-18T18:29:20.322Z,6.30
2022-11-18T18:32:10.182Z,7.80
2022-11-18T18:35:00.056Z,7.00
2022-11-18T18:37:50.031Z,7.77
2022-11-18T18:44:22.269Z,7.73
2022-11-18T18:47:09.942Z,7.37
2022-11-18T18:49:58.895Z,7.70
2022-11-18T18:52:50.580Z,7.60
2022-11-18T18:55:44.669Z,6.33
2022-11-18T18:58:34.216Z,7.47
2022-11-18T19:01:24.922Z,6.10
2022-11-18T19:04:14.237Z,5.83
2022-11-18T19:07:05.737Z,6.60
2022-11-18T19:09:54.335Z,7.57
2022-11-18T19:12:44.344Z,5.63
2022-11-18T19:15:33.234Z,4.90
2022-11-18T19:18:24.051Z,4.00
2022-11-18T19:21:15.408Z,4.13
2022-11-18T19:24:04.197Z,4.33
2022-11-18T19:26:54.552Z,6.03
2022-11-18T19:29:44.536Z,4.10
2022-11-18T19:32:35.295Z,4.83
2022-11-18T19:35:24.918Z,4.13
2022-11-18T19:38:13.441Z,4.23
2022-11-18T19:41:03.906Z,4.73
2022-11-18T19:43:54.413Z,4.23
2022-11-18T19:46:47.324Z,5.70
2022-11-18T19:49:37.804Z,3.83
2022-11-18T19:52:26.391Z,3.90
2022-11-18T19:55:15.015Z,4.80
2022-11-18T19:58:06.690Z,6.10
2022-11-18T20:00:55.312Z,4.63
2022-11-18T20:03:45.913Z,6.33
2022-11-18T20:06:35.739Z,6.47
2022-11-18T20:09:25.312Z,5.87
2022-11-18T20:12:14.226Z,5.13
2022-11-18T20:15:02.793Z,7.20
2022-11-18T20:17:51.428Z,5.77
2022-11-18T20:20:42.724Z,6.80
2022-11-18T20:23:31.280Z,6.93
2022-11-18T20:26:20.889Z,6.17
2022-11-18T20:29:09.848Z,7.00
2022-11-18T20:32:02.880Z,7.40
2022-11-18T20:34:56.209Z,7.27
2022-11-18T20:37:52.243Z,6.83
2022-11-18T20:40:40.821Z,7.63
2022-11-18T20:43:35.588Z,7.67
2022-11-18T20:46:27.761Z,8.27
2022-11-18T20:49:16.839Z,9.00
2022-11-18T20:52:05.627Z,9.23
2022-11-18T20:55:05.394Z,9.27
2022-11-18T20:58:01.843Z,10.40
2022-11-18T21:00:56.124Z,9.47
2022-11-18T21:03:53.457Z,11.43
2022-11-18T21:06:45.308Z,10.57
2022-11-18T21:09:33.835Z,11.70
2022-11-18T21:12:23.752Z,11.20
2022-11-18T21:15:12.592Z,11.03
2022-11-18T21:18:04.683Z,11.87
2022-11-18T21:21:15.633Z,10.10
2022-11-18T21:24:05.690Z,11.13
2022-11-18T21:26:56.487Z,10.23
2022-11-18T21:29:49.866Z,10.43
2022-11-18T21:32:43.693Z,10.60
2022-11-18T21:35:35.203Z,11.57
2022-11-18T21:38:28.801Z,11.20
2022-11-18T21:41:20.026Z,9.70
2022-11-18T21:44:11.046Z,10.97
2022-11-18T21:47:01.005Z,10.77
2022-11-18T21:49:57.506Z,10.90
2022-11-18T21:52:49.547Z,10.80
2022-11-18T21:55:39.231Z,10.33
2022-11-18T21:58:33.655Z,10.53
2022-11-18T22:01:26.002Z,10.67
2022-11-18T22:04:37.663Z,10.07
2022-11-18T22:07:34.451Z,9.77
2022-11-18T22:10:26.339Z,8.77
2022-11-18T22:13:22.076Z,10.90
2022-11-18T22:16:13.271Z,9.80
2022-11-18T22:19:09.192Z,10.13
2022-11-18T22:21:59.127Z,9.13
2022-11-18T22:24:48.617Z,10.43
2022-11-18T22:27:40.732Z,10.13
2022-11-18T22:30:31.255Z,9.13
2022-11-18T22:33:22.191Z,8.70
2022-11-18T22:36:12.735Z,9.00
2022-11-18T22:39:04.633Z,8.43
2022-11-18T22:42:10.762Z,8.27
2022-11-18T22:45:01.118Z,7.97
2022-11-18T22:47:52.429Z,8.73
2022-11-18T22:50:45.160Z,8.73
2022-11-18T22:53:38.120Z,8.00
2022-11-18T22:56:33.376Z,8.40
2022-11-18T22:59:22.139Z,9.10
2022-11-18T23:02:22.874Z,8.03
2022-11-18T23:05:11.709Z,8.40
2022-11-18T23:08:02.222Z,7.90
2022-11-18T23:10:54.293Z,12.80
2022-11-18T23:14:04.530Z,9.70
2022-11-18T23:17:21.247Z,8.13
2022-11-18T23:20:12.815Z,9.73
2022-11-18T23:23:01.343Z,8.90
2022-11-18T23:25:56.617Z,11.10
2022-11-18T23:28:49.444Z,8.20
2022-11-18T23:31:38.174Z,8.60
2022-11-18T23:34:28.019Z,9.87
2022-11-18T23:37:16.605Z,10.20
2022-11-18T23:40:05.480Z,10.27
2022-11-18T23:46:45.439Z,10.70
2022-11-18T23:49:36.203Z,10.13
2022-11-18T23:52:24.763Z,9.30
2022-11-18T23:55:15.963Z,9.73
2022-11-18T23:58:05.667Z,9.60
